Time;durP1;ratioP1;P1;durP2;ratioP2;P2;SDS_P1;SDS_P2;PMS_P1;PMS_P2;Temp;Humidity;BMP_temperature;BMP_pressure;BME280_temperature;BME280_humidity;BME280_pressure;Samples;Min_cycle;Max_cycle;Signal;HPM_P1;HPM_P2
2023/10/13 00:00:36;;;;;;;21.08;14.68;;;;;;;17.07;100.00;101072.31;4984700;28;20313;-73
2023/10/13 00:03:05;;;;;;;25.80;15.18;;;;;;;17.10;100.00;101073.09;4987248;28;20053;-73
2023/10/13 00:05:33;;;;;;;25.23;15.15;;;;;;;17.07;100.00;101072.31;4973093;28;20042;-72
2023/10/13 00:08:03;;;;;;;26.20;17.00;;;;;;;17.07;100.00;101067.00;4966211;28;20125;-72
2023/10/13 00:10:31;;;;;;;22.35;15.20;;;;;;;17.10;100.00;101057.13;4967644;28;20487;-72
2023/10/13 00:13:11;;;;;;;21.92;14.98;;;;;;;17.12;100.00;101057.91;4967024;28;20050;-71
2023/10/13 00:16:03;;;;;;;23.80;15.32;;;;;;;17.11;100.00;101065.03;4964619;28;20048;-72
2023/10/13 00:18:34;;;;;;;23.80;15.48;;;;;;;17.09;100.00;101053.63;4966209;28;20562;-72
2023/10/13 00:21:19;;;;;;;22.08;16.00;;;;;;;17.08;100.00;101043.91;4968025;28;20054;-74
2023/10/13 00:23:52;;;;;;;21.13;15.85;;;;;;;17.08;100.00;101042.09;4966038;28;20415;-74
2023/10/13 00:26:27;;;;;;;22.35;15.43;;;;;;;17.08;100.00;101042.09;4967169;28;20050;-72
2023/10/13 00:29:16;;;;;;;28.77;15.95;;;;;;;17.10;100.00;101038.50;4967080;28;20054;-72
2023/10/13 00:31:48;;;;;;;20.30;15.60;;;;;;;17.10;100.00;101043.81;4966402;28;20043;-74
2023/10/13 00:34:21;;;;;;;21.63;14.52;;;;;;;17.09;100.00;101032.31;4965933;28;20065;-74
2023/10/13 00:39:36;;;;;;;18.80;13.35;;;;;;;17.10;100.00;101030.50;4957145;28;20302;-75
2023/10/13 00:42:07;;;;;;;20.13;13.60;;;;;;;17.11;100.00;101029.56;4965769;28;20038;-74
2023/10/13 00:44:41;;;;;;;21.33;13.25;;;;;;;17.11;100.00;101029.56;4965871;28;20405;-74
2023/10/13 00:47:18;;;;;;;18.23;13.43;;;;;;;17.11;100.00;101032.22;4964818;28;20050;-74
2023/10/13 00:49:47;;;;;;;21.73;13.35;;;;;;;17.11;100.00;101030.41;4964598;28;20046;-74
2023/10/13 00:52:18;;;;;;;22.25;13.88;;;;;;;17.13;100.00;101031.19;4966587;28;20537;-75
2023/10/13 00:54:46;;;;;;;20.85;12.55;;;;;;;17.11;100.00;101027.72;4958213;28;20053;-74
2023/10/13 00:57:29;;;;;;;21.63;13.40;;;;;;;17.11;100.00;101025.06;4973551;28;20499;-74
2023/10/13 00:59:57;;;;;;;19.17;13.02;;;;;;;17.11;100.00;101010.91;4971863;28;20499;-74
2023/10/13 01:02:39;;;;;;;17.00;13.13;;;;;;;17.09;100.00;101005.69;4973705;28;20578;-74
2023/10/13 01:05:19;;;;;;;19.15;13.45;;;;;;;17.06;100.00;101016.50;4973437;28;20117;-74
2023/10/13 01:07:54;;;;;;;20.30;12.75;;;;;;;17.04;100.00;101008.56;4970126;28;20130;-74
2023/10/13 01:10:27;;;;;;;22.95;12.90;;;;;;;17.05;100.00;101012.09;4970348;28;20054;-74
2023/10/13 01:12:55;;;;;;;22.80;13.38;;;;;;;17.04;100.00;101005.06;4971615;28;20125;-75
2023/10/13 01:15:22;;;;;;;19.90;12.40;;;;;;;17.03;100.00;100998.00;4970763;28;20045;-75
2023/10/13 01:17:50;;;;;;;25.13;13.50;;;;;;;17.03;100.00;100990.91;4972104;28;20054;-75
2023/10/13 01:20:26;;;;;;;18.80;12.45;;;;;;;17.04;100.00;100989.06;4970989;28;20455;-73
2023/10/13 01:22:56;;;;;;;19.63;12.88;;;;;;;17.03;100.00;100987.34;4971894;28;20046;-74
2023/10/13 01:25:28;;;;;;;20.88;13.18;;;;;;;17.03;100.00;100988.22;4972409;28;20408;-73
2023/10/13 01:27:57;;;;;;;20.73;12.10;;;;;;;17.02;100.00;100969.66;4972969;28;20398;-73
2023/10/13 01:30:26;;;;;;;21.95;12.82;;;;;;;17.02;100.00;100974.97;4971674;28;20430;-73
2023/10/13 01:33:00;;;;;;;18.98;12.00;;;;;;;17.03;100.00;100976.69;4971665;28;20130;-74
2023/10/13 01:35:36;;;;;;;22.13;11.80;;;;;;;17.02;100.00;100970.53;4971651;28;20101;-74
2023/10/13 01:38:03;;;;;;;17.83;12.38;;;;;;;17.03;100.00;100976.69;4972492;28;20125;-74
2023/10/13 01:40:33;;;;;;;21.73;11.77;;;;;;;17.02;100.00;100967.88;4969893;28;20050;-74
2023/10/13 01:43:04;;;;;;;23.90;12.73;;;;;;;17.02;100.00;100961.66;4971315;28;20226;-73
2023/10/13 01:45:31;;;;;;;18.15;11.25;;;;;;;17.02;100.00;100959.88;4973140;28;20134;-74
2023/10/13 01:47:59;;;;;;;20.73;11.98;;;;;;;17.01;100.00;100947.50;4973231;28;20117;-74
2023/10/13 01:50:29;;;;;;;17.65;10.73;;;;;;;17.02;100.00;100954.56;4960801;28;20070;-74
2023/10/13 01:53:14;;;;;;;17.50;10.85;;;;;;;17.00;100.00;100951.09;4956673;28;20166;-74
2023/10/13 01:55:44;;;;;;;16.83;11.52;;;;;;;17.02;100.00;100940.34;4952395;28;20547;-72
2023/10/13 01:58:15;;;;;;;19.42;10.50;;;;;;;17.03;100.00;100945.63;4968766;28;20071;-73
2023/10/13 02:00:45;;;;;;;18.33;10.55;;;;;;;17.01;100.00;100935.97;4951599;28;20043;-74
2023/10/13 02:03:16;;;;;;;16.63;9.93;;;;;;;17.00;100.00;100932.47;4975137;28;21885;-73
2023/10/13 02:05:49;;;;;;;17.15;11.00;;;;;;;17.01;100.00;100925.31;4970380;28;20436;-72
2023/10/13 02:08:27;;;;;;;18.77;10.50;;;;;;;17.01;100.00;100926.19;4969607;28;20073;-72
2023/10/13 02:10:57;;;;;;;15.23;10.35;;;;;;;17.00;100.00;100919.16;4968370;28;20403;-72
2023/10/13 02:13:26;;;;;;;16.85;9.68;;;;;;;17.01;100.00;100914.66;4970620;28;20042;-73
2023/10/13 02:15:56;;;;;;;16.52;10.48;;;;;;;16.99;100.00;100911.25;4969786;28;20130;-72
2023/10/13 02:18:27;;;;;;;17.65;10.25;;;;;;;16.97;100.00;100910.47;4968800;28;20039;-72
2023/10/13 02:20:56;;;;;;;15.35;9.98;;;;;;;16.96;100.00;100911.44;4967700;28;20097;-71
2023/10/13 02:23:25;;;;;;;17.95;10.40;;;;;;;16.94;100.00;100903.50;4967076;28;20140;-71
2023/10/13 02:26:03;;;;;;;16.67;10.38;;;;;;;16.93;100.00;100899.13;4967941;28;20053;-71
2023/10/13 02:28:33;;;;;;;18.65;10.52;;;;;;;16.95;100.00;100888.41;4968275;28;20046;-73
2023/10/13 02:31:04;;;;;;;16.95;10.90;;;;;;;16.95;100.00;100881.25;4968881;28;20047;-74
2023/10/13 02:33:32;;;;;;;17.70;11.38;;;;;;;16.96;100.00;100879.47;4967106;28;20141;-72
2023/10/13 02:36:05;;;;;;;17.13;10.63;;;;;;;16.97;100.00;100892.69;4968628;28;20505;-73
2023/10/13 02:38:37;;;;;;;22.20;11.75;;;;;;;16.96;100.00;100882.13;4966759;28;20126;-73
2023/10/13 02:41:25;;;;;;;17.83;12.50;;;;;;;16.96;100.00;100882.13;4966488;28;21060;-73
2023/10/13 02:43:55;;;;;;;19.95;12.55;;;;;;;16.96;100.00;100885.63;4965926;28;20117;-72
2023/10/13 02:46:23;;;;;;;19.15;12.48;;;;;;;16.96;100.00;100882.97;4965509;28;20047;-73
2023/10/13 02:48:55;;;;;;;19.83;12.88;;;;;;;16.95;100.00;100878.59;4967650;28;20209;-74
2023/10/13 02:51:33;;;;;;;22.23;13.65;;;;;;;16.96;100.00;100880.31;4968120;28;20571;-74
2023/10/13 02:54:02;;;;;;;21.63;13.27;;;;;;;16.94;100.00;100874.22;4968590;28;20564;-74
2023/10/13 02:56:30;;;;;;;20.70;13.52;;;;;;;16.96;100.00;100874.16;4967729;28;20042;-73
2023/10/13 02:58:57;;;;;;;23.02;13.30;;;;;;;16.94;100.00;100871.56;4967958;28;20397;-74
2023/10/13 03:01:33;;;;;;;20.17;13.25;;;;;;;16.95;100.00;100864.44;4967360;28;20375;-73
2023/10/13 03:04:03;;;;;;;21.50;14.80;;;;;;;16.94;100.00;100852.91;4967976;28;20500;-75
2023/10/13 03:06:33;;;;;;;26.80;15.63;;;;;;;16.95;100.00;100848.47;4968993;28;20142;-74
2023/10/13 03:09:14;;;;;;;22.30;14.85;;;;;;;16.95;100.00;100851.13;4967803;28;20050;-75
2023/10/13 03:11:48;;;;;;;23.90;15.65;;;;;;;16.94;100.00;100849.41;4968194;28;20046;-74
2023/10/13 03:14:26;;;;;;;24.13;16.87;;;;;;;16.95;100.00;100854.63;4960721;28;20420;-73
2023/10/13 03:17:08;;;;;;;24.98;14.52;;;;;;;16.94;100.00;100815.63;4966951;28;20479;-74
2023/10/13 03:19:39;;;;;;;25.20;14.43;;;;;;;16.93;100.00;100813.91;4968534;28;20130;-74
2023/10/13 03:22:16;;;;;;;24.52;15.80;;;;;;;16.96;100.00;100818.22;4967374;28;20050;-74
2023/10/13 03:24:47;;;;;;;27.40;15.38;;;;;;;16.95;100.00;100808.53;4967180;28;20510;-74
2023/10/13 03:27:23;;;;;;;25.52;15.07;;;;;;;16.95;100.00;100809.38;4966474;28;20561;-73
2023/10/13 03:30:00;;;;;;;24.50;15.52;;;;;;;16.94;100.00;100794.34;4968043;28;20499;-73
2023/10/13 03:32:30;;;;;;;27.85;16.48;;;;;;;16.95;100.00;100798.72;4965159;28;20074;-73
2023/10/13 03:43:04;;;;;;;25.02;15.90;;;;;;;16.95;100.00;100772.09;4965478;28;20055;-74
2023/10/13 03:45:44;;;;;;;25.95;15.82;;;;;;;16.96;100.00;100764.97;4965187;28;20073;-72
2023/10/13 03:48:51;;;;;;;24.77;15.38;;;;;;;16.96;100.00;100764.97;4966375;28;20072;-73
2023/10/13 03:51:14;;;;;;;29.58;16.13;;;;;;;16.96;100.00;100757.84;4967715;28;20436;-71
2023/10/13 03:53:55;;;;;;;27.92;17.23;;;;;;;16.98;100.00;100760.44;4968146;28;20260;-72
2023/10/13 03:56:38;;;;;;;25.05;16.42;;;;;;;16.97;100.00;100754.22;4968782;28;20146;-71
2023/10/13 03:59:17;;;;;;;24.75;16.42;;;;;;;16.97;100.00;100743.56;4967184;28;20093;-71
2023/10/13 04:02:02;;;;;;;25.50;16.40;;;;;;;16.97;100.00;100738.25;4965772;28;20046;-71
2023/10/13 04:10:00;;;;;;;32.58;18.35;;;;;;;17.00;100.00;100703.47;4967720;28;20354;-75
2023/10/13 04:15:18;;;;;;;33.20;18.52;;;;;;;16.99;100.00;100715.06;4967016;28;20540;-74
2023/10/13 04:17:46;;;;;;;34.15;17.70;;;;;;;17.00;100.00;100706.13;4967243;28;20122;-72
2023/10/13 04:20:14;;;;;;;30.50;18.42;;;;;;;17.02;100.00;100698.03;4967792;28;20094;-71
2023/10/13 04:33:54;;;;;;;32.70;18.45;;;;;;;17.10;100.00;100660.28;4958191;28;20507;-74
2023/10/13 04:36:45;;;;;;;29.17;17.75;;;;;;;17.10;100.00;100657.63;4963090;28;20042;-71
2023/10/13 04:41:57;;;;;;;24.33;15.07;;;;;;;17.18;100.00;100648.22;4954555;28;20047;-72
2023/10/13 04:49:49;;;;;;;25.38;16.42;;;;;;;17.27;100.00;100637.97;4965032;28;20125;-71
2023/10/13 04:52:38;;;;;;;24.52;16.25;;;;;;;17.27;100.00;100630.81;4964843;28;20074;-71
2023/10/13 04:55:43;;;;;;;24.83;13.90;;;;;;;17.32;100.00;100635.84;4963792;28;20050;-71
2023/10/13 04:58:14;;;;;;;29.45;15.18;;;;;;;17.33;100.00;100643.78;4962610;28;20066;-71
2023/10/13 05:51:32;;;;;;;12.10;7.25;;;;;;;17.55;100.00;100554.47;4966344;28;20514;-72
2023/10/13 06:30:07;;;;;;;11.05;6.70;;;;;;;17.75;100.00;100565.66;4968324;28;20049;-72
2023/10/13 06:32:39;;;;;;;9.98;6.82;;;;;;;17.76;100.00;100570.03;4966141;28;20039;-72
2023/10/13 06:35:07;;;;;;;13.30;7.05;;;;;;;17.78;100.00;100574.31;4967391;28;20046;-74
2023/10/13 06:37:41;;;;;;;11.85;6.78;;;;;;;17.79;100.00;100565.38;4990094;28;20078;-74
2023/10/13 06:40:33;;;;;;;13.20;6.72;;;;;;;17.83;100.00;100571.34;4989380;28;20642;-73
2023/10/13 06:43:16;;;;;;;12.65;6.43;;;;;;;17.87;100.00;100562.19;4987865;28;20382;-73
2023/10/13 06:45:56;;;;;;;10.25;6.45;;;;;;;17.90;100.00;100569.16;4987432;28;20274;-73
2023/10/13 06:48:25;;;;;;;11.73;6.53;;;;;;;17.94;100.00;100559.97;4988216;28;20409;-73
2023/10/13 06:50:52;;;;;;;14.70;6.68;;;;;;;17.97;100.00;100575.81;4987862;28;20038;-73
2023/10/13 06:53:20;;;;;;;12.85;5.95;;;;;;;17.98;100.00;100553.53;4988024;28;20128;-73
2023/10/13 06:55:49;;;;;;;12.38;6.65;;;;;;;18.02;100.00;100562.16;4988588;28;20133;-73
2023/10/13 06:58:17;;;;;;;12.20;5.93;;;;;;;18.03;100.00;100559.38;4987970;28;20053;-73
2023/10/13 07:01:02;;;;;;;10.38;5.97;;;;;;;18.03;100.00;100556.72;4988564;28;20108;-73
2023/10/13 07:03:31;;;;;;;14.45;6.50;;;;;;;18.02;100.00;100559.50;4981575;28;20050;-73
2023/10/13 07:05:59;;;;;;;12.95;6.30;;;;;;;18.04;100.00;100553.09;4973437;28;20054;-73
2023/10/13 07:08:26;;;;;;;14.15;6.28;;;;;;;18.05;100.00;100546.81;4969151;28;20046;-73
2023/10/13 07:11:02;;;;;;;13.82;6.15;;;;;;;18.08;100.00;100545.75;4969787;28;20070;-73
2023/10/13 07:13:29;;;;;;;12.35;5.72;;;;;;;18.09;100.00;100536.78;4969298;28;20069;-73
2023/10/13 07:16:05;;;;;;;13.27;6.20;;;;;;;18.09;100.00;100540.34;4968746;28;20101;-73
2023/10/13 07:18:49;;;;;;;11.32;5.65;;;;;;;18.11;100.00;100540.22;4968162;28;20046;-73
2023/10/13 07:21:16;;;;;;;17.42;6.10;;;;;;;18.11;100.00;100532.22;4967998;28;20074;-73
2023/10/13 07:24:00;;;;;;;16.13;5.88;;;;;;;18.11;100.00;100530.38;4968591;28;20078;-73
2023/10/13 07:26:28;;;;;;;16.10;6.68;;;;;;;18.10;100.00;100528.72;4968630;28;20428;-73
2023/10/13 07:28:55;;;;;;;11.57;6.10;;;;;;;18.09;100.00;100519.00;4968449;28;20060;-74
2023/10/13 07:31:26;;;;;;;12.30;6.07;;;;;;;18.08;100.00;100516.41;4967805;28;20047;-73
2023/10/13 07:34:05;;;;;;;13.43;6.32;;;;;;;18.06;100.00;100508.53;4966661;28;20052;-73
2023/10/13 07:36:39;;;;;;;13.07;6.30;;;;;;;18.07;100.00;100504.03;4967856;28;20066;-73
2023/10/13 07:39:23;;;;;;;;;;;;;;;18.06;100.00;100492.53;4968873;28;20039;-73
2023/10/13 07:42:03;;;;;;;15.13;6.17;;;;;;;18.06;100.00;100492.53;4967958;28;20254;-73
2023/10/13 07:44:33;;;;;;;15.88;6.60;;;;;;;18.06;100.00;100484.53;4968696;28;20419;-73
2023/10/13 07:47:07;;;;;;;17.92;6.50;;;;;;;18.10;100.00;100477.16;4967862;28;20133;-74
2023/10/13 07:49:37;;;;;;;15.05;6.80;;;;;;;18.15;100.00;100478.56;4967099;28;20043;-73
2023/10/13 07:57:56;;;;;;;13.20;5.72;;;;;;;18.30;100.00;100473.97;4968111;28;20070;-73
2023/10/13 08:00:27;;;;;;;21.58;6.63;;;;;;;18.38;100.00;100483.28;4967113;28;20078;-74
2023/10/13 08:03:09;;;;;;;15.90;5.78;;;;;;;18.43;100.00;100481.16;4975787;28;20125;-73
2023/10/13 08:05:42;;;;;;;16.88;6.10;;;;;;;18.51;100.00;100483.28;4969343;28;20074;-74
2023/10/13 08:08:14;;;;;;;11.80;5.72;;;;;;;18.58;100.00;100469.38;4984699;28;20510;-74
2023/10/13 08:10:45;;;;;;;18.42;5.93;;;;;;;18.67;100.00;100469.72;4987504;28;20081;-74
2023/10/13 08:13:13;;;;;;;14.13;5.57;;;;;;;18.75;100.00;100459.38;4987696;28;20042;-74
2023/10/13 08:15:47;;;;;;;11.20;5.80;;;;;;;18.82;100.00;100449.09;4986935;28;20103;-74
2023/10/13 08:18:19;;;;;;;12.10;5.25;;;;;;;18.90;100.00;100460.09;4986674;28;20053;-73
2023/10/13 08:20:47;;;;;;;18.85;6.05;;;;;;;18.97;100.00;100447.19;4986174;28;20224;-74
2023/10/13 08:23:20;;;;;;;10.55;5.47;;;;;;;19.01;100.00;100445.97;4979709;28;20314;-74
2023/10/13 08:31:25;;;;;;;10.75;5.22;;;;;;;19.26;100.00;100447.72;4966770;28;20129;-73
2023/10/13 08:34:06;;;;;;;11.38;4.93;;;;;;;19.37;100.00;100431.75;4966625;28;20495;-73
2023/10/13 08:36:37;;;;;;;14.48;5.32;;;;;;;19.45;100.00;100439.22;4967339;28;20403;-73
2023/10/13 08:39:57;;;;;;;12.80;5.22;;;;;;;19.52;100.00;100436.94;4967402;28;20787;-74
2023/10/13 08:42:11;;;;;;;11.07;4.93;;;;;;;19.63;100.00;100439.66;4966952;28;20127;-74
2023/10/13 08:44:52;;;;;;;15.02;5.15;;;;;;;19.77;100.00;100437.75;4997680;28;20137;-73
2023/10/13 08:47:24;;;;;;;9.00;5.20;;;;;;;19.91;100.00;100448.31;4967352;28;20051;-73
2023/10/13 08:50:06;;;;;;;12.05;5.05;;;;;;;20.01;100.00;100440.41;4966420;28;20074;-73
2023/10/13 08:52:56;;;;;;;12.35;4.95;;;;;;;20.12;100.00;100451.16;4967079;28;20125;-73
2023/10/13 08:55:39;;;;;;;13.52;5.57;;;;;;;20.22;100.00;100442.41;4967283;28;20369;-73
2023/10/13 08:58:13;;;;;;;12.35;4.85;;;;;;;20.33;100.00;100432.59;4966964;28;20053;-74
2023/10/13 09:00:56;;;;;;;12.77;4.57;;;;;;;20.43;100.00;100432.72;4967280;28;20050;-74
2023/10/13 09:03:38;;;;;;;15.95;4.88;;;;;;;20.53;100.00;100430.16;4947530;28;20047;-74
2023/10/13 09:06:14;;;;;;;17.23;5.20;;;;;;;20.72;100.00;100426.03;4962524;28;20082;-74
2023/10/13 09:09:04;;;;;;;13.35;4.57;;;;;;;20.86;100.00;100432.97;4966478;28;20043;-74
2023/10/13 09:11:48;;;;;;;13.02;4.20;;;;;;;20.86;98.01;100436.50;4966977;28;20039;-74
2023/10/13 09:14:37;;;;;;;12.65;4.97;;;;;;;20.80;100.00;100412.91;4968056;28;20085;-74
2023/10/13 09:17:53;;;;;;;12.57;4.40;;;;;;;20.76;99.80;100419.47;4968903;28;20207;-74
2023/10/13 09:19:58;;;;;;;12.80;4.63;;;;;;;20.75;99.83;100420.47;4969935;28;20319;-73
2023/10/13 09:22:35;;;;;;;10.60;4.78;;;;;;;20.77;99.87;100410.47;4970857;28;20062;-74
2023/10/13 09:25:05;;;;;;;12.25;4.63;;;;;;;20.78;98.94;100405.00;4968628;28;20055;-73
2023/10/13 09:27:33;;;;;;;8.73;4.20;;;;;;;20.78;96.87;100399.63;4970216;28;20045;-74
2023/10/13 09:30:18;;;;;;;11.32;4.47;;;;;;;20.75;97.17;100401.72;4970448;28;20117;-73
2023/10/13 09:32:45;;;;;;;11.27;4.68;;;;;;;20.76;94.77;100401.59;4984449;28;20046;-73
2023/10/13 09:35:23;;;;;;;14.18;4.53;;;;;;;20.75;95.93;100402.56;4989778;28;20049;-74
2023/10/13 09:37:51;;;;;;;12.63;4.53;;;;;;;20.75;93.71;100391.00;4989168;28;20456;-73
2023/10/13 09:40:25;;;;;;;18.20;4.65;;;;;;;20.77;92.44;100410.47;4979175;28;20112;-73
2023/10/13 09:42:55;;;;;;;18.58;4.88;;;;;;;20.78;92.52;100399.63;4989424;28;20491;-74
2023/10/13 09:45:36;;;;;;;12.80;4.65;;;;;;;20.81;93.26;100397.69;4989721;28;20042;-73
2023/10/13 09:48:08;;;;;;;10.48;4.50;;;;;;;20.82;92.94;100394.88;4975623;28;20066;-74
2023/10/13 09:50:44;;;;;;;18.38;4.80;;;;;;;20.83;92.46;100398.41;4968818;28;20078;-73
2023/10/13 09:53:13;;;;;;;15.90;4.63;;;;;;;20.85;92.59;100400.00;4969990;28;20138;-73
2023/10/13 09:55:49;;;;;;;14.70;4.60;;;;;;;20.89;93.60;100403.28;4971460;28;20046;-73
2023/10/13 09:58:19;;;;;;;11.23;4.47;;;;;;;20.93;92.97;100384.16;4971285;28;20141;-73
2023/10/13 10:01:06;;;;;;;15.43;4.28;;;;;;;21.02;91.17;100395.94;4970712;28;20043;-73
2023/10/13 10:04:35;;;;;;;12.95;4.22;;;;;;;21.20;89.11;100390.06;4987594;28;20042;-73
2023/10/13 10:06:45;;;;;;;16.33;4.75;;;;;;;21.26;88.08;100402.94;4952093;28;20063;-75
2023/10/13 10:09:13;;;;;;;12.27;4.25;;;;;;;21.26;88.31;100394.91;4951077;28;20066;-73
2023/10/13 10:12:08;;;;;;;13.48;4.80;;;;;;;21.28;88.04;100392.06;4951457;28;20497;-73
2023/10/13 10:15:13;;;;;;;18.10;5.28;;;;;;;21.28;88.02;100382.22;4950584;28;20134;-73
2023/10/13 10:17:43;;;;;;;14.40;4.50;;;;;;;21.40;88.60;100385.72;4959892;28;20066;-73
2023/10/13 10:20:20;;;;;;;12.35;4.55;;;;;;;21.53;87.48;100377.47;4969895;28;20629;-73
2023/10/13 10:23:00;;;;;;;14.70;4.88;;;;;;;21.68;86.26;100372.69;4969452;28;20081;-73
2023/10/13 10:25:35;;;;;;;15.38;4.68;;;;;;;21.78;86.51;100362.88;4970228;28;20129;-73
2023/10/13 10:28:07;;;;;;;11.95;4.47;;;;;;;21.86;85.08;100360.41;4968602;28;20042;-73
2023/10/13 10:30:38;;;;;;;11.68;4.45;;;;;;;21.87;86.22;100359.41;4970447;28;20054;-74
2023/10/13 10:33:21;;;;;;;13.68;4.63;;;;;;;21.87;85.18;100345.16;4988261;28;20061;-73
2023/10/13 10:36:00;;;;;;;14.32;4.82;;;;;;;21.84;84.53;100345.41;4989018;28;20405;-75
2023/10/13 10:41:04;;;;;;;12.98;4.18;;;;;;;21.76;82.99;100332.66;4972680;28;20098;-73
2023/10/13 10:43:45;;;;;;;11.07;4.85;;;;;;;21.70;83.43;100334.03;4969550;28;20464;-73
2023/10/13 10:46:25;;;;;;;13.55;5.10;;;;;;;21.64;83.93;100321.13;4969666;28;20046;-73
2023/10/13 10:48:56;;;;;;;13.52;5.05;;;;;;;21.59;83.67;100323.38;4969740;28;20066;-73
2023/10/13 10:51:23;;;;;;;14.85;5.05;;;;;;;21.55;84.01;100316.53;4969244;28;20038;-73
2023/10/13 10:53:57;;;;;;;13.60;5.35;;;;;;;21.51;84.54;100312.44;4969793;28;20043;-73
2023/10/13 10:56:36;;;;;;;13.05;5.07;;;;;;;21.55;84.31;100319.22;4969281;28;20126;-73
2023/10/13 10:59:19;;;;;;;9.70;5.07;;;;;;;21.55;84.33;100309.34;4969911;28;20459;-74
2023/10/13 11:01:47;;;;;;;13.13;5.03;;;;;;;21.59;83.05;100309.09;4976489;28;20046;-73
2023/10/13 11:04:18;;;;;;;13.55;5.22;;;;;;;21.63;84.45;100299.81;4981953;28;20290;-73
2023/10/13 11:06:54;;;;;;;14.77;5.05;;;;;;;21.71;83.87;100308.06;4968835;28;20105;-73
2023/10/13 11:09:45;;;;;;;16.70;4.60;;;;;;;21.77;81.77;100325.44;4980256;28;20039;-73
2023/10/13 11:12:15;;;;;;;12.82;5.13;;;;;;;21.81;82.60;100310.81;4967906;28;20081;-73
2023/10/13 11:14:50;;;;;;;13.77;5.15;;;;;;;21.86;82.42;100314.78;4949819;28;20090;-73
2023/10/13 11:18:11;;;;;;;15.60;4.82;;;;;;;21.96;82.11;100309.47;4950454;28;20047;-73
2023/10/13 11:20:25;;;;;;;17.88;5.05;;;;;;;22.10;81.75;100289.47;4950376;28;20082;-73
2023/10/13 11:22:52;;;;;;;12.25;5.20;;;;;;;22.26;79.92;100299.69;4948182;28;20058;-73
2023/10/13 11:25:29;;;;;;;10.85;4.70;;;;;;;22.41;78.56;100302.06;4949625;28;20165;-73
2023/10/13 11:27:59;;;;;;;13.43;5.00;;;;;;;22.54;78.05;100307.19;4951234;28;20074;-74
2023/10/13 11:30:40;;;;;;;15.80;5.07;;;;;;;22.63;77.16;100296.47;4968870;28;20054;-73
2023/10/13 11:33:10;;;;;;;12.73;5.03;;;;;;;22.71;75.76;100294.91;4983743;28;20054;-74
2023/10/13 11:41:11;;;;;;;17.65;5.05;;;;;;;22.67;75.19;100269.31;4979356;28;20046;-73
2023/10/13 11:51:47;;;;;;;14.18;4.60;;;;;;;22.78;73.06;100248.56;4987426;28;20058;-73
2023/10/13 11:54:23;;;;;;;;;;;;;;;22.79;73.09;100236.78;4988567;28;20034;-73
2023/10/13 11:56:50;;;;;;;10.77;4.82;;;;;;;22.89;72.00;100233.28;4987206;28;20024;-73
2023/10/13 11:59:17;;;;;;;13.07;4.75;;;;;;;22.95;70.94;100238.91;4987776;28;20069;-73
2023/10/13 12:04:43;;;;;;;17.55;4.60;;;;;;;23.03;72.16;100242.75;4984214;28;20038;-73
2023/10/13 12:07:17;;;;;;;13.40;5.00;;;;;;;23.06;73.42;100229.00;4965998;28;20050;-73
2023/10/13 12:12:26;;;;;;;14.48;4.57;;;;;;;23.15;71.65;100225.47;4965619;28;20043;-75
2023/10/13 12:14:55;;;;;;;20.70;5.25;;;;;;;23.21;70.63;100227.63;4969125;28;20130;-76
2023/10/13 12:17:31;;;;;;;9.50;4.20;;;;;;;23.24;69.71;100210.34;4967784;28;20432;-75
2023/10/13 12:19:59;;;;;;;18.02;4.97;;;;;;;23.27;68.83;100213.59;4960681;28;20046;-75
2023/10/13 12:22:35;;;;;;;18.42;4.78;;;;;;;23.32;69.36;100207.78;4969325;28;20347;-77
2023/10/13 12:25:18;;;;;;;14.20;4.70;;;;;;;23.38;68.93;100198.28;4965301;28;20178;-76
2023/10/13 12:27:48;;;;;;;15.77;4.60;;;;;;;23.44;66.00;100205.78;4966703;28;20077;-76
2023/10/13 12:30:22;;;;;;;17.50;4.97;;;;;;;23.50;67.70;100215.13;4968077;28;20534;-77
2023/10/13 12:33:08;;;;;;;16.15;5.40;;;;;;;23.56;67.64;100204.59;4965819;28;20078;-76
2023/10/13 12:36:03;;;;;;;15.80;4.55;;;;;;;23.67;65.85;100203.59;4964655;28;20419;-76
2023/10/13 12:38:37;;;;;;;16.42;4.90;;;;;;;23.76;66.18;100201.84;4950990;28;20043;-77
2023/10/13 12:49:51;;;;;;;16.85;5.07;;;;;;;24.04;65.97;100200.03;4962108;28;20058;-76
2023/10/13 12:52:19;;;;;;;14.82;5.00;;;;;;;24.08;65.27;100184.44;4961406;28;20043;-75
2023/10/13 12:54:58;;;;;;;21.83;5.07;;;;;;;24.12;65.48;100191.22;4957507;28;20627;-75
2023/10/13 12:57:27;;;;;;;17.73;4.40;;;;;;;24.10;65.57;100187.81;4953852;28;20034;-75
2023/10/13 12:59:55;;;;;;;12.38;4.80;;;;;;;24.04;65.43;100188.44;4963160;28;20046;-75
2023/10/13 13:02:25;;;;;;;13.48;5.10;;;;;;;23.93;65.31;100192.13;4965378;28;20038;-75
2023/10/13 13:04:57;;;;;;;13.75;4.68;;;;;;;23.85;64.11;100195.59;4960061;28;20385;-76
2023/10/13 13:07:29;;;;;;;17.00;4.65;;;;;;;23.79;64.56;100203.41;4962216;28;20047;-76
2023/10/13 13:10:00;;;;;;;21.48;5.63;;;;;;;23.73;65.67;100191.38;4960243;28;20093;-76
2023/10/13 13:12:30;;;;;;;15.60;4.93;;;;;;;23.74;65.68;100193.09;4964169;28;20039;-76
2023/10/13 13:14:57;;;;;;;16.73;4.95;;;;;;;23.70;66.26;100194.38;4952153;28;20047;-75
2023/10/13 13:17:25;;;;;;;16.08;4.80;;;;;;;23.69;65.50;100195.34;4956689;28;20141;-80
2023/10/13 13:19:53;;;;;;;26.65;5.10;;;;;;;23.67;65.30;100197.34;4960728;28;20071;-76
2023/10/13 13:22:20;;;;;;;14.55;4.63;;;;;;;23.67;65.30;100195.50;4963862;28;20613;-76
2023/10/13 13:24:47;;;;;;;15.52;4.82;;;;;;;23.67;65.21;100187.44;4946634;28;20122;-76
2023/10/13 13:27:22;;;;;;;14.38;4.22;;;;;;;23.67;63.98;100183.88;4961181;28;20042;-76
2023/10/13 13:29:49;;;;;;;16.98;4.97;;;;;;;23.62;65.39;100189.72;4962426;28;20038;-76
2023/10/13 13:32:23;;;;;;;17.70;4.40;;;;;;;23.57;65.50;100184.78;4949367;28;20134;-77
2023/10/13 13:34:57;;;;;;;16.73;4.63;;;;;;;23.51;65.96;100193.44;4946638;28;20043;-76
2023/10/13 13:37:27;;;;;;;15.10;4.30;;;;;;;23.42;64.83;100180.88;4947158;28;20535;-75
2023/10/13 13:39:55;;;;;;;12.35;4.50;;;;;;;23.38;65.01;100174.09;4946161;28;20592;-75
2023/10/13 13:42:22;;;;;;;18.85;5.35;;;;;;;23.34;63.96;100188.84;4947611;28;20051;-76
2023/10/13 13:44:49;;;;;;;13.88;4.13;;;;;;;23.31;64.30;100181.03;4951050;28;20142;-75
2023/10/13 13:47:17;;;;;;;14.50;4.15;;;;;;;23.30;64.92;100188.25;4953541;28;20047;-75
2023/10/13 13:49:51;;;;;;;19.13;4.88;;;;;;;23.27;64.33;100177.81;4964916;28;20114;-75
2023/10/13 13:52:27;;;;;;;17.60;4.22;;;;;;;23.23;63.46;100185.31;4961658;28;20477;-75
2023/10/13 13:54:54;;;;;;;12.23;4.30;;;;;;;23.20;64.57;100177.53;4961702;28;20042;-75
2023/10/13 13:57:24;;;;;;;16.17;4.22;;;;;;;23.18;64.16;100178.66;4951689;28;20047;-74
2023/10/13 13:59:52;;;;;;;15.95;4.35;;;;;;;23.13;64.68;100175.53;4963143;28;20043;-74
2023/10/13 14:02:19;;;;;;;11.40;4.18;;;;;;;23.10;64.19;100171.31;4964893;28;20416;-74
2023/10/13 14:04:50;;;;;;;13.73;4.00;;;;;;;23.07;64.44;100166.19;4966716;28;20407;-75
2023/10/13 14:07:23;;;;;;;15.20;4.60;;;;;;;23.04;64.54;100178.09;4950042;28;20047;-75
2023/10/13 14:10:05;;;;;;;17.88;4.55;;;;;;;22.99;65.15;100183.06;4958962;28;20045;-75
2023/10/13 14:12:41;;;;;;;15.35;4.10;;;;;;;22.95;65.24;100171.72;4954417;28;20039;-75
2023/10/13 14:15:24;;;;;;;15.15;4.03;;;;;;;22.92;65.45;100173.88;4978962;28;20451;-76
2023/10/13 14:17:51;;;;;;;16.42;4.18;;;;;;;22.86;65.75;100169.91;4977456;28;20464;-76
2023/10/13 14:20:18;;;;;;;11.80;3.92;;;;;;;22.83;64.53;100169.34;4969012;28;20066;-76
2023/10/13 14:22:48;;;;;;;14.07;4.20;;;;;;;22.80;64.49;100167.81;4970215;28;20067;-76
2023/10/13 14:25:15;;;;;;;15.00;4.15;;;;;;;22.77;65.64;100174.31;4984174;28;20061;-75
2023/10/13 14:27:43;;;;;;;12.40;4.45;;;;;;;22.75;65.68;100172.75;4971863;28;20571;-76